Time;durP1;ratioP1;P1;durP2;ratioP2;P2;SDS_P1;SDS_P2;PMS_P1;PMS_P2;Temp;Humidity;BMP_temperature;BMP_pressure;BME280_temperature;BME280_humidity;BME280_pressure;Samples;Min_cycle;Max_cycle;Signal;HPM_P1;HPM_P2
2023/09/27 00:00:10;;;;;;;9.77;8.73;;;;;;;14.93;92.32;101940.47;5086836;28;20015;-73
2023/09/27 00:02:37;;;;;;;12.60;9.48;;;;;;;14.91;92.59;101940.66;5088212;28;20027;-73
2023/09/27 00:05:07;;;;;;;13.63;9.43;;;;;;;14.92;92.76;101947.69;5084795;28;20107;-73
2023/09/27 00:07:33;;;;;;;13.10;10.07;;;;;;;14.86;92.85;101943.84;5086715;28;20035;-72
2023/09/27 00:09:58;;;;;;;13.75;10.05;;;;;;;14.87;92.88;101953.53;5085529;28;20031;-73
2023/09/27 00:12:24;;;;;;;12.00;9.93;;;;;;;14.83;93.47;101946.03;5085126;28;20350;-73
2023/09/27 00:14:49;;;;;;;11.35;9.63;;;;;;;14.82;92.85;101945.19;5088524;28;20028;-72
2023/09/27 00:17:14;;;;;;;10.68;9.65;;;;;;;14.85;93.43;101944.03;5089442;28;20020;-72
2023/09/27 00:19:40;;;;;;;12.65;10.07;;;;;;;14.84;93.99;101945.88;5087519;28;20027;-72
2023/09/27 00:22:05;;;;;;;13.85;10.55;;;;;;;14.82;94.05;101945.19;5087376;28;20016;-72
2023/09/27 00:24:31;;;;;;;14.75;9.85;;;;;;;14.92;94.47;101961.03;5086777;28;20443;-73
2023/09/27 00:26:56;;;;;;;11.32;10.10;;;;;;;15.00;94.43;101963.69;5086526;28;20085;-72
2023/09/27 00:29:21;;;;;;;9.98;8.88;;;;;;;15.02;94.88;101955.50;5089099;28;20024;-73
2023/09/27 00:31:46;;;;;;;10.40;9.20;;;;;;;15.02;95.00;101952.81;5086998;28;20028;-72
2023/09/27 00:34:12;;;;;;;10.80;9.60;;;;;;;15.09;95.48;101957.31;5085973;28;20408;-72
2023/09/27 00:36:38;;;;;;;11.55;10.27;;;;;;;15.11;95.66;101954.47;5089548;28;20129;-72
2023/09/27 00:39:03;;;;;;;12.77;10.05;;;;;;;15.12;95.67;101954.31;5086769;28;20115;-73
2023/09/27 00:41:29;;;;;;;14.32;10.50;;;;;;;15.12;95.61;101959.66;5086177;28;20016;-73
2023/09/27 00:43:54;;;;;;;11.95;10.05;;;;;;;15.15;95.50;101953.13;5086490;28;20069;-73
2023/09/27 00:46:20;;;;;;;13.80;9.93;;;;;;;15.16;95.40;101936.06;5085846;28;20016;-72
2023/09/27 00:48:45;;;;;;;10.95;9.05;;;;;;;15.18;95.45;101942.91;5086163;28;20024;-72
2023/09/27 00:51:12;;;;;;;10.85;9.57;;;;;;;15.16;95.51;101941.41;5087302;28;20035;-73
2023/09/27 00:53:39;;;;;;;15.35;9.80;;;;;;;15.17;95.51;101949.25;5087473;28;20393;-72
2023/09/27 00:56:05;;;;;;;10.50;9.10;;;;;;;15.17;95.40;101943.91;5089553;28;20389;-73
2023/09/27 00:58:31;;;;;;;13.55;9.90;;;;;;;15.17;95.11;101943.06;5087636;28;20024;-72
2023/09/27 01:00:57;;;;;;;12.80;9.32;;;;;;;15.09;95.08;101943.94;5090841;28;20030;-72
2023/09/27 01:03:23;;;;;;;11.40;9.60;;;;;;;15.10;95.01;101948.28;5085958;28;20028;-72
2023/09/27 01:05:48;;;;;;;11.07;9.65;;;;;;;15.05;95.16;101947.97;5087050;28;20034;-72
2023/09/27 01:08:14;;;;;;;11.55;9.40;;;;;;;15.00;94.98;101944.13;5086758;28;20034;-72
2023/09/27 01:10:40;;;;;;;12.27;9.18;;;;;;;14.99;95.19;101937.94;5080926;28;20870;-72
2023/09/27 01:13:06;;;;;;;13.20;10.00;;;;;;;14.93;95.43;101935.13;5086421;28;20031;-73
2023/09/27 01:15:32;;;;;;;11.25;9.30;;;;;;;14.85;94.98;101944.03;5085067;28;20453;-73
2023/09/27 01:17:59;;;;;;;11.80;9.27;;;;;;;14.88;95.37;101936.50;5086540;28;20082;-72
2023/09/27 01:20:27;;;;;;;10.95;9.30;;;;;;;14.84;95.29;101934.34;5086102;28;20107;-72
2023/09/27 01:22:58;;;;;;;13.30;9.48;;;;;;;14.84;95.42;101928.97;5093065;28;20071;-72
2023/09/27 01:25:27;;;;;;;10.38;8.45;;;;;;;14.78;95.45;101916.31;5091382;28;20028;-73
2023/09/27 01:27:52;;;;;;;11.18;9.10;;;;;;;14.77;95.13;101911.97;5092798;28;20097;-72
2023/09/27 01:30:17;;;;;;;10.93;8.88;;;;;;;14.69;95.29;101910.13;5090797;28;20071;-72
2023/09/27 01:32:42;;;;;;;10.30;8.70;;;;;;;14.69;95.20;101896.75;5088941;28;20048;-72
2023/09/27 01:35:08;;;;;;;11.10;8.80;;;;;;;14.63;95.22;101897.44;5090371;28;20373;-72
2023/09/27 01:37:33;;;;;;;13.15;9.15;;;;;;;14.67;95.24;101888.06;5091419;28;20427;-72
2023/09/27 01:39:59;;;;;;;11.02;8.43;;;;;;;14.69;95.29;101887.91;5085378;28;20384;-72
2023/09/27 01:42:24;;;;;;;10.55;9.10;;;;;;;14.69;95.51;101898.59;5084649;28;20024;-72
2023/09/27 01:44:50;;;;;;;12.38;8.05;;;;;;;14.70;95.63;101903.78;5092608;28;20046;-72
2023/09/27 01:47:15;;;;;;;12.07;8.63;;;;;;;14.73;95.56;101907.94;5088593;28;20020;-72
2023/09/27 01:49:40;;;;;;;10.75;8.57;;;;;;;14.70;95.33;101914.47;5086692;28;20396;-72
2023/09/27 01:52:06;;;;;;;9.65;8.07;;;;;;;14.54;95.13;101911.84;5087227;28;20034;-72
2023/09/27 01:54:31;;;;;;;12.68;8.63;;;;;;;14.48;94.54;101916.03;5090587;28;20081;-72
2023/09/27 01:56:56;;;;;;;14.80;8.60;;;;;;;14.35;94.40;101907.66;5088135;28;20034;-72
2023/09/27 01:59:21;;;;;;;12.20;8.02;;;;;;;14.39;94.58;101903.66;5089575;28;20027;-73
2023/09/27 02:01:47;;;;;;;9.50;8.60;;;;;;;14.38;94.77;101903.81;5088314;28;20047;-72
2023/09/27 02:04:12;;;;;;;12.23;8.40;;;;;;;14.36;94.61;101895.97;5090356;28;20525;-72
2023/09/27 02:06:37;;;;;;;11.05;8.90;;;;;;;14.30;94.89;101901.16;5091007;28;20031;-72
2023/09/27 02:09:03;;;;;;;11.45;9.35;;;;;;;14.36;95.19;101913.84;5092023;28;20283;-72
2023/09/27 02:11:29;;;;;;;10.85;8.77;;;;;;;14.33;95.23;101901.66;5085803;28;20052;-72
2023/09/27 02:13:56;;;;;;;11.90;9.02;;;;;;;14.31;95.23;101901.00;5088918;28;20050;-72
2023/09/27 02:16:21;;;;;;;12.02;9.45;;;;;;;14.25;95.55;101896.31;5086948;28;20032;-72
2023/09/27 02:18:46;;;;;;;12.63;9.90;;;;;;;14.32;95.78;101912.50;5089728;28;20027;-72
2023/09/27 02:21:13;;;;;;;9.75;8.10;;;;;;;14.24;95.61;101918.72;5086802;28;20506;-72
2023/09/27 02:23:38;;;;;;;11.77;9.35;;;;;;;14.25;95.31;101917.69;5086811;28;20077;-72
2023/09/27 02:26:04;;;;;;;10.65;8.38;;;;;;;14.13;95.38;101911.84;5094932;28;20036;-72
2023/09/27 02:28:30;;;;;;;10.50;8.77;;;;;;;14.08;95.39;101908.00;5084063;28;20035;-72
2023/09/27 02:30:55;;;;;;;11.85;9.48;;;;;;;14.03;95.37;101921.03;5087463;28;20038;-72
2023/09/27 02:33:20;;;;;;;11.50;10.02;;;;;;;13.98;95.45;101913.53;5089737;28;20102;-72
2023/09/27 02:35:46;;;;;;;13.85;10.45;;;;;;;13.95;95.85;101913.88;5086579;28;20125;-72
2023/09/27 02:38:11;;;;;;;12.45;10.50;;;;;;;13.94;96.14;101915.72;5084861;28;20028;-72
2023/09/27 02:40:36;;;;;;;13.95;10.60;;;;;;;13.92;96.26;101925.72;5087971;28;20016;-72
2023/09/27 02:43:03;;;;;;;14.13;9.93;;;;;;;13.90;96.65;101922.38;5089507;28;20089;-72
2023/09/27 02:45:28;;;;;;;14.85;10.45;;;;;;;13.85;96.94;101922.03;5088334;28;20024;-72
2023/09/27 02:47:53;;;;;;;13.63;10.00;;;;;;;13.76;96.89;101924.84;5084077;28;20413;-72
2023/09/27 02:50:19;;;;;;;13.07;10.25;;;;;;;13.72;97.12;101913.69;5089631;28;20040;-72
2023/09/27 02:52:44;;;;;;;13.20;10.57;;;;;;;13.69;97.29;101913.16;5087626;28;20382;-72
2023/09/27 02:55:10;;;;;;;13.35;10.43;;;;;;;13.69;97.57;101922.00;5089245;28;20051;-72
2023/09/27 02:57:36;;;;;;;14.57;10.63;;;;;;;13.69;98.07;101913.16;5087342;28;20429;-72
2023/09/27 03:00:03;;;;;;;13.63;9.75;;;;;;;13.73;98.10;101917.19;5089082;28;20028;-72
2023/09/27 03:02:30;;;;;;;13.10;9.80;;;;;;;13.74;98.14;101911.66;5087878;28;20020;-72
2023/09/27 03:04:58;;;;;;;11.65;9.88;;;;;;;13.74;97.80;101910.84;5088238;28;20107;-72
2023/09/27 03:07:23;;;;;;;10.77;9.65;;;;;;;13.74;97.85;101919.69;5089956;28;20081;-72
2023/09/27 03:09:48;;;;;;;12.52;11.10;;;;;;;13.73;97.95;101912.69;5082824;28;20028;-72
2023/09/27 03:12:14;;;;;;;11.75;9.52;;;;;;;13.74;97.79;101914.34;5086581;28;20026;-73
2023/09/27 03:14:39;;;;;;;14.00;9.93;;;;;;;13.71;97.94;101912.00;5086298;28;20035;-72
2023/09/27 03:17:04;;;;;;;12.13;10.88;;;;;;;13.75;97.52;101918.69;5091760;28;20538;-72
2023/09/27 03:19:30;;;;;;;11.05;9.95;;;;;;;13.72;97.78;101913.69;5087256;28;20020;-72
2023/09/27 03:21:55;;;;;;;10.13;9.05;;;;;;;13.72;97.69;101911.00;5086575;28;20020;-72
2023/09/27 03:24:20;;;;;;;10.90;9.18;;;;;;;13.62;97.36;101911.16;5089779;28;20032;-72
2023/09/27 03:26:46;;;;;;;12.35;9.02;;;;;;;13.53;97.15;101922.81;5086627;28;20511;-72
2023/09/27 03:29:12;;;;;;;12.07;9.57;;;;;;;13.44;97.19;101921.13;5084936;28;20026;-72
2023/09/27 03:31:37;;;;;;;10.48;6.85;;;;;;;13.28;97.37;101921.06;5089499;28;20095;-72
2023/09/27 03:34:02;;;;;;;8.48;6.78;;;;;;;13.18;96.94;101933.69;5090596;28;20024;-72
2023/09/27 03:36:28;;;;;;;9.32;7.15;;;;;;;13.15;97.29;101934.84;5088540;28;20028;-72
2023/09/27 03:38:54;;;;;;;6.72;5.30;;;;;;;13.14;97.87;101927.81;5086266;28;20069;-72
2023/09/27 03:41:19;;;;;;;7.38;6.38;;;;;;;13.05;97.91;101934.13;5085671;28;20039;-72
2023/09/27 03:43:44;;;;;;;8.55;6.10;;;;;;;13.01;97.78;101933.63;5086415;28;20442;-72
2023/09/27 03:46:11;;;;;;;9.32;8.43;;;;;;;13.11;98.09;101922.81;5087604;28;20012;-72
2023/09/27 03:48:36;;;;;;;9.13;8.13;;;;;;;13.05;98.44;101911.97;5085433;28;20084;-72
2023/09/27 03:51:02;;;;;;;10.13;8.23;;;;;;;13.14;98.55;101922.50;5086101;28;20031;-72
2023/09/27 03:53:27;;;;;;;14.18;9.00;;;;;;;13.20;98.88;101929.03;5087689;28;20036;-72
2023/09/27 03:55:52;;;;;;;12.60;8.77;;;;;;;13.20;98.64;101924.53;5084724;28;20032;-72
2023/09/27 03:58:18;;;;;;;11.60;9.70;;;;;;;13.21;98.79;101923.53;5086920;28;20106;-72
2023/09/27 04:00:44;;;;;;;13.23;10.60;;;;;;;13.29;98.92;101928.06;5087004;28;20076;-72
2023/09/27 04:03:09;;;;;;;11.60;9.80;;;;;;;13.27;99.65;101935.41;5086644;28;20509;-72
2023/09/27 04:05:34;;;;;;;13.27;10.20;;;;;;;13.25;99.04;101940.91;5087622;28;20020;-72
2023/09/27 04:08:00;;;;;;;11.05;9.30;;;;;;;13.22;98.73;101945.72;5089179;28;20525;-72
2023/09/27 04:10:27;;;;;;;10.88;9.57;;;;;;;13.22;98.95;101949.22;5083367;28;20024;-72
2023/09/27 04:12:52;;;;;;;7.88;7.07;;;;;;;13.07;98.64;101947.31;5084577;28;20058;-72
2023/09/27 04:15:17;;;;;;;11.60;9.70;;;;;;;13.13;97.98;101947.50;5088071;28;20032;-72
2023/09/27 04:17:43;;;;;;;11.93;9.35;;;;;;;13.14;98.03;101945.66;5087505;28;20093;-72
2023/09/27 04:20:16;;;;;;;10.68;9.57;;;;;;;13.11;98.13;101937.97;5087107;28;20115;-72
2023/09/27 04:22:46;;;;;;;9.25;8.23;;;;;;;13.07;97.88;101934.81;5084296;28;20028;-72
2023/09/27 04:25:12;;;;;;;9.90;8.35;;;;;;;13.01;97.88;101938.13;5084189;28;20030;-72
2023/09/27 04:27:39;;;;;;;10.27;8.75;;;;;;;12.95;97.78;101942.22;5087613;28;20028;-72
2023/09/27 04:30:11;;;;;;;11.82;9.68;;;;;;;12.92;97.81;101947.88;5087863;28;20082;-72
2023/09/27 04:32:39;;;;;;;12.43;10.48;;;;;;;12.85;98.34;101949.53;5087625;28;20020;-72
2023/09/27 04:35:04;;;;;;;13.60;11.20;;;;;;;12.85;98.58;101957.50;5090045;28;20032;-72
2023/09/27 04:37:29;;;;;;;11.20;10.10;;;;;;;12.82;99.03;101965.84;5085881;28;20023;-72
2023/09/27 04:39:55;;;;;;;14.05;10.38;;;;;;;12.76;98.71;101968.31;5085314;28;20518;-72
2023/09/27 04:42:20;;;;;;;11.80;10.55;;;;;;;12.76;98.81;101977.13;5085611;28;20020;-72
2023/09/27 04:44:46;;;;;;;10.25;9.23;;;;;;;12.63;98.93;101979.34;5085660;28;20070;-72
2023/09/27 04:47:11;;;;;;;12.23;10.93;;;;;;;12.74;99.35;101959.63;5084327;28;20545;-72
2023/09/27 04:49:36;;;;;;;11.55;9.45;;;;;;;12.68;99.42;101939.75;5082750;28;20023;-72
2023/09/27 04:52:02;;;;;;;12.23;10.20;;;;;;;12.67;99.11;101946.06;5083860;28;20036;-72
2023/09/27 04:54:28;;;;;;;12.40;11.10;;;;;;;12.70;99.20;101943.91;5086435;28;20031;-72
2023/09/27 04:56:53;;;;;;;13.50;12.05;;;;;;;12.79;99.90;101946.66;5093140;28;20028;-72
2023/09/27 04:59:18;;;;;;;12.88;10.75;;;;;;;12.84;99.97;101945.19;5090652;28;20193;-72
2023/09/27 05:01:44;;;;;;;14.05;10.75;;;;;;;12.80;100.00;101935.84;5090483;28;20507;-72
2023/09/27 05:04:09;;;;;;;12.13;10.57;;;;;;;12.84;100.00;101950.50;5088831;28;20042;-72
2023/09/27 05:06:34;;;;;;;16.15;11.50;;;;;;;12.80;99.86;101940.34;5088238;28;20028;-72
2023/09/27 05:08:59;;;;;;;10.80;9.70;;;;;;;12.76;99.81;101947.81;5088596;28;20455;-72
2023/09/27 05:11:25;;;;;;;15.55;13.52;;;;;;;12.84;99.66;101941.69;5088147;28;20020;-72
2023/09/27 05:13:50;;;;;;;19.48;13.13;;;;;;;12.89;100.00;101947.38;5090525;28;20112;-72
2023/09/27 05:16:15;;;;;;;14.50;12.70;;;;;;;12.87;100.00;101933.38;5099513;28;20020;-72
2023/09/27 05:18:41;;;;;;;18.25;13.73;;;;;;;12.92;100.00;101931.06;5089826;28;20514;-72
2023/09/27 05:21:07;;;;;;;16.10;14.02;;;;;;;12.95;100.00;101934.22;5095335;28;20028;-72
2023/09/27 05:23:32;;;;;;;18.42;14.07;;;;;;;12.96;100.00;101933.22;5086763;28;20024;-73
2023/09/27 05:25:58;;;;;;;17.45;13.85;;;;;;;12.98;100.00;101927.75;5096716;28;20035;-72
2023/09/27 05:28:23;;;;;;;16.35;11.85;;;;;;;12.90;100.00;101923.22;5082857;28;20020;-72
2023/09/27 05:30:48;;;;;;;16.50;12.80;;;;;;;12.94;100.00;101934.38;5085450;28;20055;-72
2023/09/27 05:33:14;;;;;;;16.65;13.13;;;;;;;12.93;100.00;101938.88;5092449;28;20035;-72
2023/09/27 05:35:39;;;;;;;17.98;14.02;;;;;;;12.96;100.00;101935.06;5090688;28;20024;-72
2023/09/27 05:38:04;;;;;;;19.10;14.02;;;;;;;12.97;100.00;101945.56;5092565;28;20052;-72
2023/09/27 05:40:29;;;;;;;15.02;12.27;;;;;;;12.96;100.00;101956.41;5089981;28;20389;-72
2023/09/27 05:42:55;;;;;;;15.40;11.95;;;;;;;12.92;100.00;101934.56;5084195;28;20016;-72
2023/09/27 05:45:20;;;;;;;16.88;11.90;;;;;;;12.96;100.00;101932.41;5083745;28;20053;-72
2023/09/27 05:47:46;;;;;;;13.02;11.38;;;;;;;13.00;100.00;101937.25;5089050;28;20035;-72
2023/09/27 05:50:12;;;;;;;13.38;11.38;;;;;;;13.00;100.00;101936.41;5088003;28;20111;-72
2023/09/27 05:52:37;;;;;;;14.43;12.50;;;;;;;12.98;100.00;101919.75;5087915;28;20040;-72
2023/09/27 05:55:06;;;;;;;15.77;12.48;;;;;;;12.99;100.00;101926.75;5088561;28;20501;-72
2023/09/27 05:57:32;;;;;;;14.20;11.85;;;;;;;12.95;100.00;101915.56;5090405;28;20382;-72
2023/09/27 05:59:58;;;;;;;18.65;12.95;;;;;;;13.00;100.00;101923.91;5089842;28;20038;-72
2023/09/27 06:02:30;;;;;;;15.55;12.13;;;;;;;13.01;100.00;101924.78;5086030;28;20027;-72
2023/09/27 06:04:56;;;;;;;19.88;13.40;;;;;;;13.03;100.00;101917.47;5090789;28;20048;-72
2023/09/27 06:07:22;;;;;;;21.80;13.20;;;;;;;13.02;100.00;101919.28;5089504;28;20028;-72
2023/09/27 06:09:48;;;;;;;13.93;11.73;;;;;;;12.94;100.00;101908.56;5093121;28;20016;-72
2023/09/27 06:12:14;;;;;;;14.52;12.95;;;;;;;13.09;100.00;101919.47;5091182;27;20053;-72
2023/09/27 06:14:42;;;;;;;16.17;13.10;;;;;;;13.11;100.00;101921.97;5095377;28;20022;-72
2023/09/27 06:17:08;;;;;;;15.48;12.75;;;;;;;13.16;100.00;101927.66;5082479;28;20024;-72
2023/09/27 06:19:34;;;;;;;14.48;12.95;;;;;;;13.19;100.00;101932.72;5091949;28;20016;-72
2023/09/27 06:21:59;;;;;;;15.25;13.30;;;;;;;13.24;100.00;101925.06;5092481;28;20082;-72
2023/09/27 06:24:26;;;;;;;18.05;13.43;;;;;;;13.28;100.00;101905.06;5089238;28;20031;-72
2023/09/27 06:26:52;;;;;;;19.73;13.60;;;;;;;13.31;100.00;101902.09;5083881;28;20032;-72
2023/09/27 06:29:19;;;;;;;20.40;13.73;;;;;;;13.36;100.00;101901.59;5087325;28;20035;-72
2023/09/27 06:31:45;;;;;;;14.25;12.75;;;;;;;13.42;100.00;101907.09;5087845;28;20063;-72
2023/09/27 06:34:10;;;;;;;15.00;12.75;;;;;;;13.45;100.00;101903.28;5084778;28;20916;-72
2023/09/27 06:36:36;;;;;;;14.43;12.93;;;;;;;13.52;100.00;101907.78;5085717;28;20035;-72
2023/09/27 06:39:01;;;;;;;16.75;14.05;;;;;;;13.57;100.00;101917.97;5087159;28;20028;-72
2023/09/27 06:41:27;;;;;;;15.63;13.48;;;;;;;13.72;100.00;101918.19;5083805;28;20033;-72
2023/09/27 06:43:53;;;;;;;15.27;13.50;;;;;;;13.89;100.00;101922.56;5093003;28;20378;-72
2023/09/27 06:46:19;;;;;;;17.33;14.13;;;;;;;13.99;100.00;101909.03;5098559;28;20025;-72
2023/09/27 06:48:45;;;;;;;17.23;14.88;;;;;;;14.12;100.00;101918.19;5091965;28;20028;-72
2023/09/27 06:51:13;;;;;;;16.15;13.93;;;;;;;14.08;100.00;101927.53;5087110;28;20428;-72
2023/09/27 06:53:38;;;;;;;21.10;13.95;;;;;;;14.06;100.00;101931.38;5090419;28;20066;-72
2023/09/27 06:56:05;;;;;;;15.00;13.48;;;;;;;14.09;100.00;101937.22;5088849;28;20035;-72
2023/09/27 06:58:31;;;;;;;15.75;14.07;;;;;;;14.09;100.00;101936.41;5090038;28;20020;-72
2023/09/27 07:00:56;;;;;;;15.80;13.73;;;;;;;14.20;100.00;101941.41;5093057;28;20107;-72
2023/09/27 07:03:24;;;;;;;19.50;14.45;;;;;;;14.32;100.00;101924.03;5091988;28;20524;-72
2023/09/27 07:05:51;;;;;;;17.92;13.98;;;;;;;14.38;100.00;101915.34;5090679;28;20024;-72
2023/09/27 07:08:16;;;;;;;17.05;14.30;;;;;;;14.47;100.00;101918.88;5089198;28;20082;-72
2023/09/27 07:10:42;;;;;;;17.13;13.15;;;;;;;14.50;100.00;101922.06;5084973;28;20032;-72
2023/09/27 07:13:07;;;;;;;19.23;13.20;;;;;;;14.52;100.00;101928.06;5092733;28;20027;-72
2023/09/27 07:15:32;;;;;;;18.35;13.20;;;;;;;14.56;100.00;101932.06;5086201;27;20131;-72
2023/09/27 07:17:58;;;;;;;14.10;12.70;;;;;;;14.55;100.00;101926.88;5085625;28;20020;-72
2023/09/27 07:20:33;;;;;;;17.52;13.65;;;;;;;14.56;100.00;101929.38;5090600;28;20019;-72
2023/09/27 07:22:59;;;;;;;17.85;13.23;;;;;;;14.56;100.00;101939.25;5090190;28;20032;-72
2023/09/27 07:25:25;;;;;;;15.68;12.30;;;;;;;14.57;100.00;101940.91;5087584;28;20057;-73
2023/09/27 07:27:51;;;;;;;15.85;13.32;;;;;;;14.51;100.00;101936.25;5087796;28;20111;-73
2023/09/27 07:30:18;;;;;;;15.75;12.70;;;;;;;14.57;100.00;101936.41;5085251;28;20381;-73
2023/09/27 07:32:47;;;;;;;17.10;12.73;;;;;;;14.59;100.00;101943.41;5085944;28;20380;-73
2023/09/27 07:35:14;;;;;;;15.80;14.13;;;;;;;14.59;100.00;101944.25;5088025;28;20051;-72
2023/09/27 07:37:43;;;;;;;18.52;13.45;;;;;;;14.59;100.00;101938.06;5086584;28;20023;-72
2023/09/27 07:40:10;;;;;;;;;;;;;;;14.71;100.00;101940.19;5087040;28;20032;-72
2023/09/27 07:42:36;;;;;;;17.02;15.23;;;;;;;14.64;99.75;101941.91;5088424;28;20380;-72
2023/09/27 07:45:02;;;;;;;16.83;15.07;;;;;;;14.66;99.66;101939.03;5095130;28;20058;-73
2023/09/27 07:47:27;;;;;;;20.10;17.52;;;;;;;14.68;99.62;101929.00;5085580;28;20098;-73
2023/09/27 07:49:53;;;;;;;21.15;18.90;;;;;;;14.69;99.47;101936.03;5086529;28;20028;-73
2023/09/27 07:52:18;;;;;;;24.30;19.63;;;;;;;14.75;99.52;101954.09;5084551;28;20413;-72
2023/09/27 07:54:45;;;;;;;24.20;20.10;;;;;;;14.83;99.63;101954.06;5089110;28;20020;-72
2023/09/27 07:57:11;;;;;;;23.50;20.98;;;;;;;14.91;99.83;101947.84;5084379;28;20036;-72
2023/09/27 07:59:36;;;;;;;25.30;21.75;;;;;;;14.94;99.87;101948.34;5087576;28;20442;-72
2023/09/27 08:02:01;;;;;;;24.33;21.75;;;;;;;14.98;99.73;101948.81;5086136;28;20051;-73
2023/09/27 08:04:27;;;;;;;24.20;21.75;;;;;;;15.09;99.15;101957.31;5086567;28;20027;-73
2023/09/27 08:06:52;;;;;;;24.55;20.95;;;;;;;15.10;99.45;101971.53;5088179;28;20580;-72
2023/09/27 08:09:21;;;;;;;20.90;18.77;;;;;;;15.13;99.23;101969.34;5090397;28;20043;-72
2023/09/27 08:11:47;;;;;;;21.17;18.63;;;;;;;15.13;99.20;101960.50;5081774;28;20051;-72
2023/09/27 08:14:13;;;;;;;20.73;18.42;;;;;;;15.12;98.87;101961.50;5087779;28;20663;-72
2023/09/27 08:16:39;;;;;;;21.60;17.45;;;;;;;15.21;99.06;101975.66;5087542;28;20046;-72
2023/09/27 08:19:04;;;;;;;18.33;16.33;;;;;;;15.23;99.27;101973.66;5090002;28;20497;-73
2023/09/27 08:21:30;;;;;;;20.20;17.20;;;;;;;15.28;99.62;101976.63;5090963;28;20115;-71
2023/09/27 08:23:55;;;;;;;19.83;16.38;;;;;;;15.33;99.95;101975.13;5105207;28;20488;-71
2023/09/27 08:26:20;;;;;;;23.58;16.73;;;;;;;15.37;100.00;101976.44;5089735;28;20012;-71
2023/09/27 08:28:46;;;;;;;21.48;17.00;;;;;;;15.43;100.00;101964.22;5078500;28;20370;-71
2023/09/27 08:31:12;;;;;;;21.67;16.30;;;;;;;15.53;100.00;101970.16;5103804;28;20018;-71
2023/09/27 08:33:37;;;;;;;20.27;16.27;;;;;;;15.70;100.00;101968.28;5106286;28;20106;-71
2023/09/27 08:36:03;;;;;;;20.25;16.88;;;;;;;15.85;100.00;101958.44;5092231;28;20123;-71
2023/09/27 08:38:28;;;;;;;24.00;16.70;;;;;;;15.98;100.00;101960.56;5103121;28;20031;-71
2023/09/27 08:40:54;;;;;;;19.35;16.40;;;;;;;16.13;100.00;101966.78;5088653;28;20051;-71
2023/09/27 08:43:20;;;;;;;21.25;16.08;;;;;;;16.25;99.71;101967.22;5100855;28;20023;-71
2023/09/27 08:45:46;;;;;;;19.60;17.15;;;;;;;16.41;99.31;101967.91;5093253;28;20027;-71
2023/09/27 08:48:16;;;;;;;20.27;16.95;;;;;;;16.54;99.26;101967.28;5103374;28;20509;-71
2023/09/27 08:50:42;;;;;;;18.75;16.77;;;;;;;16.63;98.73;101960.00;5095480;28;20469;-71
2023/09/27 08:53:07;;;;;;;23.33;17.77;;;;;;;16.71;98.31;101959.94;5106347;28;20023;-72
2023/09/27 08:55:33;;;;;;;20.63;17.65;;;;;;;16.82;98.06;101959.50;5081947;28;20432;-71
2023/09/27 08:58:00;;;;;;;23.63;19.35;;;;;;;16.91;97.92;101957.56;5085134;28;20024;-71
2023/09/27 09:00:26;;;;;;;22.13;19.80;;;;;;;17.01;97.40;101953.56;5089503;28;20413;-71
2023/09/27 09:02:57;;;;;;;23.77;20.40;;;;;;;17.12;97.16;101952.28;5089838;28;20466;-71
2023/09/27 09:05:24;;;;;;;21.98;19.60;;;;;;;17.24;96.65;101958.81;5101646;28;20020;-71
2023/09/27 09:07:50;;;;;;;23.08;19.98;;;;;;;17.39;96.39;101953.44;5102918;28;20020;-71
2023/09/27 09:10:16;;;;;;;21.45;18.35;;;;;;;17.52;96.02;101956.28;5098029;28;20106;-71
2023/09/27 09:12:43;;;;;;;23.90;18.05;;;;;;;17.72;95.70;101944.97;5092537;28;20477;-72
2023/09/27 09:15:27;;;;;;;20.85;16.20;;;;;;;17.79;94.90;101932.41;5094215;28;20035;-71
2023/09/27 09:17:57;;;;;;;26.52;14.95;;;;;;;17.94;94.11;101941.28;5104062;28;20031;-71
2023/09/27 09:20:27;;;;;;;17.45;14.68;;;;;;;17.99;93.35;101941.53;5098488;28;20050;-71
2023/09/27 09:22:54;;;;;;;18.15;14.10;;;;;;;18.08;92.93;101934.97;5089927;28;20016;-71
2023/09/27 09:25:22;;;;;;;20.15;14.52;;;;;;;18.15;92.63;101935.84;5104313;28;20020;-71
2023/09/27 09:28:07;;;;;;;17.75;13.82;;;;;;;18.21;92.03;101929.72;5105126;28;20022;-71
2023/09/27 09:30:40;;;;;;;16.20;12.63;;;;;;;18.29;91.72;101936.81;5080924;28;20028;-71
2023/09/27 09:33:28;;;;;;;22.70;12.85;;;;;;;18.37;91.75;101931.28;5093528;28;20537;-71
2023/09/27 09:35:55;;;;;;;18.52;13.35;;;;;;;18.39;91.15;101944.53;5101991;28;20106;-71
2023/09/27 09:38:29;;;;;;;14.00;12.60;;;;;;;18.44;90.36;101936.72;5095923;28;20020;-71
2023/09/27 09:40:58;;;;;;;23.63;12.50;;;;;;;18.46;89.68;101926.59;5086638;28;20016;-71
2023/09/27 09:43:37;;;;;;;16.42;12.75;;;;;;;18.53;89.02;101925.63;5090572;28;20164;-71
2023/09/27 09:46:06;;;;;;;16.30;13.45;;;;;;;18.60;88.48;101914.91;5089911;28;20032;-71
2023/09/27 09:48:33;;;;;;;18.77;13.30;;;;;;;18.69;88.83;101915.59;5103247;28;20019;-71
2023/09/27 09:51:03;;;;;;;17.20;13.93;;;;;;;18.75;88.20;101912.94;5090499;28;20032;-71
2023/09/27 09:53:29;;;;;;;18.48;13.73;;;;;;;18.85;88.51;101899.97;5095082;28;20019;-71
2023/09/27 09:55:55;;;;;;;17.17;13.75;;;;;;;18.95;87.92;101890.69;5096607;28;20451;-71
2023/09/27 09:58:35;;;;;;;17.88;14.65;;;;;;;19.09;87.48;101887.03;5097521;28;20024;-71
2023/09/27 10:01:03;;;;;;;18.92;14.77;;;;;;;19.24;87.85;101887.69;5097353;28;20070;-71
2023/09/27 10:03:33;;;;;;;16.17;13.43;;;;;;;19.34;87.35;101896.22;5101792;28;20016;-71
2023/09/27 10:06:01;;;;;;;16.63;13.85;;;;;;;19.41;86.36;101891.72;5089154;28;20060;-71
2023/09/27 10:08:33;;;;;;;17.40;13.27;;;;;;;19.42;85.77;101893.38;5088452;28;20023;-71
2023/09/27 10:10:58;;;;;;;14.60;12.43;;;;;;;19.47;85.45;101881.97;5093739;28;20025;-71
2023/09/27 10:13:24;;;;;;;16.15;12.15;;;;;;;19.54;84.98;101890.09;5096199;28;20370;-72
2023/09/27 10:15:49;;;;;;;18.85;11.77;;;;;;;19.60;84.29;101887.41;5100597;28;20015;-71
2023/09/27 10:18:23;;;;;;;20.40;11.73;;;;;;;19.69;83.18;101899.69;5090962;28;20433;-71
2023/09/27 10:21:00;;;;;;;12.02;9.90;;;;;;;19.79;82.53;101891.19;5053393;28;1019852;-71
2023/09/27 10:23:26;;;;;;;16.75;10.55;;;;;;;19.85;82.33;101876.88;5100205;28;20504;-72
2023/09/27 10:25:51;;;;;;;12.40;9.95;;;;;;;19.95;81.96;101871.91;5104568;28;20043;-71
2023/09/27 10:28:17;;;;;;;14.27;10.25;;;;;;;19.99;81.29;101869.63;5092128;28;20028;-71
2023/09/27 10:30:45;;;;;;;14.85;10.50;;;;;;;20.01;79.94;101879.16;5098472;28;20397;-71
2023/09/27 10:33:23;;;;;;;16.38;10.07;;;;;;;20.06;79.28;101883.94;5099968;28;20485;-71
2023/09/27 10:36:00;;;;;;;14.02;10.00;;;;;;;20.06;78.43;101876.66;5093748;28;20032;-72
2023/09/27 10:38:48;;;;;;;12.68;9.68;;;;;;;20.08;78.03;101873.78;5086489;28;20032;-71
2023/09/27 10:41:32;;;;;;;13.05;9.93;;;;;;;20.14;77.35;101872.09;5091835;28;20024;-72
2023/09/27 10:43:57;;;;;;;11.18;10.02;;;;;;;20.16;77.51;101864.63;5089585;28;20024;-69
2023/09/27 10:46:23;;;;;;;13.32;10.52;;;;;;;20.20;76.65;101866.69;5087651;28;20028;-69
2023/09/27 10:48:55;;;;;;;11.90;10.27;;;;;;;20.26;76.55;101857.78;5088048;28;20042;-70
2023/09/27 10:51:26;;;;;;;14.20;10.93;;;;;;;20.31;76.65;101854.47;5089630;28;20033;-70
2023/09/27 10:53:52;;;;;;;11.85;10.63;;;;;;;20.36;76.48;101835.75;5090374;28;20027;-69
2023/09/27 10:56:18;;;;;;;16.15;11.32;;;;;;;20.36;76.08;101846.56;5089431;28;20035;-68
2023/09/27 10:58:49;;;;;;;13.57;10.88;;;;;;;20.36;75.58;101849.25;5088327;28;20020;-70
2023/09/27 11:01:23;;;;;;;23.60;10.95;;;;;;;20.42;75.52;101848.44;5096668;28;20019;-69
2023/09/27 11:04:00;;;;;;;16.77;10.38;;;;;;;20.48;76.32;101838.66;5085799;28;20526;-68
2023/09/27 11:06:27;;;;;;;12.48;9.82;;;;;;;20.47;75.86;101835.13;5079369;28;20039;-71
2023/09/27 11:09:08;;;;;;;12.65;10.10;;;;;;;20.52;75.21;101839.88;5089350;28;20052;-71